sensor_id;sensor_type;location;lat;lon;timestamp;P1;durP1;ratioP1;P2;durP2;ratioP2
32826;SDS011;51059;42.058;27.986;2023-12-28T00:02:07;4.30;;;3.33;;
32826;SDS011;51059;42.058;27.986;2023-12-28T00:04:34;5.93;;;3.63;;
32826;SDS011;51059;42.058;27.986;2023-12-28T00:07:00;5.87;;;3.97;;
32826;SDS011;51059;42.058;27.986;2023-12-28T00:09:26;6.93;;;3.87;;
32826;SDS011;51059;42.058;27.986;2023-12-28T00:11:52;4.70;;;3.63;;
32826;SDS011;51059;42.058;27.986;2023-12-28T00:14:18;6.27;;;4.17;;
32826;SDS011;51059;42.058;27.986;2023-12-28T00:16:43;5.87;;;3.83;;
32826;SDS011;51059;42.058;27.986;2023-12-28T00:19:15;6.53;;;4.47;;
32826;SDS011;51059;42.058;27.986;2023-12-28T00:21:40;9.37;;;5.90;;
32826;SDS011;51059;42.058;27.986;2023-12-28T00:24:06;9.90;;;5.37;;
32826;SDS011;51059;42.058;27.986;2023-12-28T00:26:32;7.37;;;5.00;;
32826;SDS011;51059;42.058;27.986;2023-12-28T00:28:58;6.50;;;3.80;;
32826;SDS011;51059;42.058;27.986;2023-12-28T00:31:23;5.57;;;4.00;;
32826;SDS011;51059;42.058;27.986;2023-12-28T00:33:49;6.93;;;4.00;;
32826;SDS011;51059;42.058;27.986;2023-12-28T00:36:16;6.40;;;3.93;;
32826;SDS011;51059;42.058;27.986;2023-12-28T00:38:43;5.10;;;3.70;;
32826;SDS011;51059;42.058;27.986;2023-12-28T00:41:08;5.47;;;4.40;;
32826;SDS011;51059;42.058;27.986;2023-12-28T00:43:34;6.60;;;4.90;;
32826;SDS011;51059;42.058;27.986;2023-12-28T00:46:00;7.23;;;4.50;;
32826;SDS011;51059;42.058;27.986;2023-12-28T00:48:26;7.37;;;4.73;;
32826;SDS011;51059;42.058;27.986;2023-12-28T00:50:52;5.37;;;4.40;;
32826;SDS011;51059;42.058;27.986;2023-12-28T00:53:20;5.50;;;4.30;;
32826;SDS011;51059;42.058;27.986;2023-12-28T00:55:46;6.80;;;4.33;;
32826;SDS011;51059;42.058;27.986;2023-12-28T00:58:11;7.13;;;4.03;;
32826;SDS011;51059;42.058;27.986;2023-12-28T01:00:36;4.90;;;3.77;;
32826;SDS011;51059;42.058;27.986;2023-12-28T01:03:03;5.97;;;4.03;;
32826;SDS011;51059;42.058;27.986;2023-12-28T01:05:31;6.80;;;3.93;;
32826;SDS011;51059;42.058;27.986;2023-12-28T01:07:57;4.97;;;3.67;;
32826;SDS011;51059;42.058;27.986;2023-12-28T01:10:23;6.07;;;4.07;;
32826;SDS011;51059;42.058;27.986;2023-12-28T01:12:48;6.03;;;4.00;;
32826;SDS011;51059;42.058;27.986;2023-12-28T01:15:14;6.10;;;4.60;;
32826;SDS011;51059;42.058;27.986;2023-12-28T01:17:43;5.40;;;3.90;;
32826;SDS011;51059;42.058;27.986;2023-12-28T01:20:09;6.73;;;4.60;;
32826;SDS011;51059;42.058;27.986;2023-12-28T01:22:35;5.10;;;4.30;;
32826;SDS011;51059;42.058;27.986;2023-12-28T01:25:02;6.17;;;4.97;;
32826;SDS011;51059;42.058;27.986;2023-12-28T01:27:28;6.37;;;3.77;;
32826;SDS011;51059;42.058;27.986;2023-12-28T01:29:53;5.57;;;4.00;;
32826;SDS011;51059;42.058;27.986;2023-12-28T01:32:18;4.50;;;3.63;;
32826;SDS011;51059;42.058;27.986;2023-12-28T01:34:46;6.90;;;3.77;;
32826;SDS011;51059;42.058;27.986;2023-12-28T01:37:11;6.93;;;4.20;;
32826;SDS011;51059;42.058;27.986;2023-12-28T01:39:37;6.07;;;3.97;;
32826;SDS011;51059;42.058;27.986;2023-12-28T01:42:03;6.73;;;3.90;;
32826;SDS011;51059;42.058;27.986;2023-12-28T01:44:30;6.00;;;4.10;;
32826;SDS011;51059;42.058;27.986;2023-12-28T01:46:56;5.10;;;3.73;;
32826;SDS011;51059;42.058;27.986;2023-12-28T01:49:22;6.87;;;3.80;;
32826;SDS011;51059;42.058;27.986;2023-12-28T01:51:48;5.30;;;4.13;;
32826;SDS011;51059;42.058;27.986;2023-12-28T01:54:15;4.67;;;3.80;;
32826;SDS011;51059;42.058;27.986;2023-12-28T01:56:42;4.17;;;3.77;;
32826;SDS011;51059;42.058;27.986;2023-12-28T01:59:08;6.63;;;3.93;;
32826;SDS011;51059;42.058;27.986;2023-12-28T02:01:34;6.43;;;4.33;;
32826;SDS011;51059;42.058;27.986;2023-12-28T02:03:59;5.63;;;4.17;;
32826;SDS011;51059;42.058;27.986;2023-12-28T02:06:25;4.97;;;4.20;;
32826;SDS011;51059;42.058;27.986;2023-12-28T02:08:51;5.00;;;4.07;;
32826;SDS011;51059;42.058;27.986;2023-12-28T02:11:17;5.30;;;4.13;;
32826;SDS011;51059;42.058;27.986;2023-12-28T02:13:44;5.37;;;4.63;;
32826;SDS011;51059;42.058;27.986;2023-12-28T02:16:11;6.77;;;4.70;;
32826;SDS011;51059;42.058;27.986;2023-12-28T02:18:38;6.27;;;4.70;;
32826;SDS011;51059;42.058;27.986;2023-12-28T02:21:04;4.93;;;4.07;;
32826;SDS011;51059;42.058;27.986;2023-12-28T02:23:34;8.33;;;4.77;;
32826;SDS011;51059;42.058;27.986;2023-12-28T02:25:59;7.20;;;5.10;;
32826;SDS011;51059;42.058;27.986;2023-12-28T02:28:27;5.53;;;4.83;;
32826;SDS011;51059;42.058;27.986;2023-12-28T02:30:53;6.37;;;4.00;;
32826;SDS011;51059;42.058;27.986;2023-12-28T02:33:26;7.10;;;4.30;;
32826;SDS011;51059;42.058;27.986;2023-12-28T02:35:56;6.20;;;4.30;;
32826;SDS011;51059;42.058;27.986;2023-12-28T02:38:23;4.50;;;4.03;;
32826;SDS011;51059;42.058;27.986;2023-12-28T02:40:49;4.37;;;3.70;;
32826;SDS011;51059;42.058;27.986;2023-12-28T02:43:16;6.57;;;3.77;;
32826;SDS011;51059;42.058;27.986;2023-12-28T02:45:41;6.87;;;4.10;;
32826;SDS011;51059;42.058;27.986;2023-12-28T02:48:13;5.83;;;4.10;;
32826;SDS011;51059;42.058;27.986;2023-12-28T02:50:39;5.97;;;3.90;;
32826;SDS011;51059;42.058;27.986;2023-12-28T02:53:04;6.30;;;4.10;;
32826;SDS011;51059;42.058;27.986;2023-12-28T02:55:30;5.83;;;3.83;;
32826;SDS011;51059;42.058;27.986;2023-12-28T02:57:56;5.17;;;4.27;;
32826;SDS011;51059;42.058;27.986;2023-12-28T03:00:27;5.13;;;3.80;;
32826;SDS011;51059;42.058;27.986;2023-12-28T03:02:53;5.20;;;3.77;;
32826;SDS011;51059;42.058;27.986;2023-12-28T03:05:18;8.30;;;3.80;;
32826;SDS011;51059;42.058;27.986;2023-12-28T03:07:44;7.40;;;4.00;;
32826;SDS011;51059;42.058;27.986;2023-12-28T03:10:10;4.40;;;3.77;;
32826;SDS011;51059;42.058;27.986;2023-12-28T03:12:38;6.10;;;3.77;;
32826;SDS011;51059;42.058;27.986;2023-12-28T03:15:04;6.73;;;4.00;;
32826;SDS011;51059;42.058;27.986;2023-12-28T03:17:30;4.73;;;3.77;;
32826;SDS011;51059;42.058;27.986;2023-12-28T03:19:56;6.70;;;4.00;;
32826;SDS011;51059;42.058;27.986;2023-12-28T03:22:22;4.50;;;3.90;;
32826;SDS011;51059;42.058;27.986;2023-12-28T03:24:48;5.53;;;3.93;;
32826;SDS011;51059;42.058;27.986;2023-12-28T03:27:14;4.93;;;4.10;;
32826;SDS011;51059;42.058;27.986;2023-12-28T03:29:43;6.53;;;4.37;;
32826;SDS011;51059;42.058;27.986;2023-12-28T03:32:09;7.10;;;5.10;;
32826;SDS011;51059;42.058;27.986;2023-12-28T03:34:34;6.63;;;4.53;;
32826;SDS011;51059;42.058;27.986;2023-12-28T03:37:00;6.70;;;4.80;;
32826;SDS011;51059;42.058;27.986;2023-12-28T03:39:26;5.40;;;4.53;;
32826;SDS011;51059;42.058;27.986;2023-12-28T03:41:52;6.07;;;4.33;;
32826;SDS011;51059;42.058;27.986;2023-12-28T03:44:19;6.03;;;4.60;;
32826;SDS011;51059;42.058;27.986;2023-12-28T03:46:49;5.40;;;4.60;;
32826;SDS011;51059;42.058;27.986;2023-12-28T03:49:19;7.40;;;4.47;;
32826;SDS011;51059;42.058;27.986;2023-12-28T03:51:45;6.73;;;4.10;;
32826;SDS011;51059;42.058;27.986;2023-12-28T03:54:11;6.93;;;4.70;;
32826;SDS011;51059;42.058;27.986;2023-12-28T03:56:37;6.87;;;4.47;;
32826;SDS011;51059;42.058;27.986;2023-12-28T03:59:05;5.20;;;4.47;;
32826;SDS011;51059;42.058;27.986;2023-12-28T04:01:31;6.63;;;4.77;;
32826;SDS011;51059;42.058;27.986;2023-12-28T04:03:56;5.33;;;4.50;;
32826;SDS011;51059;42.058;27.986;2023-12-28T04:06:21;7.37;;;5.10;;
32826;SDS011;51059;42.058;27.986;2023-12-28T04:08:48;5.30;;;4.80;;
32826;SDS011;51059;42.058;27.986;2023-12-28T04:11:15;5.57;;;4.47;;
32826;SDS011;51059;42.058;27.986;2023-12-28T04:13:40;5.90;;;4.47;;
32826;SDS011;51059;42.058;27.986;2023-12-28T04:16:07;5.33;;;4.83;;
32826;SDS011;51059;42.058;27.986;2023-12-28T04:18:34;5.60;;;4.60;;
32826;SDS011;51059;42.058;27.986;2023-12-28T04:21:00;5.63;;;4.70;;
32826;SDS011;51059;42.058;27.986;2023-12-28T04:23:27;7.63;;;5.10;;
32826;SDS011;51059;42.058;27.986;2023-12-28T04:25:52;5.80;;;5.20;;
32826;SDS011;51059;42.058;27.986;2023-12-28T04:28:18;6.07;;;5.13;;
32826;SDS011;51059;42.058;27.986;2023-12-28T04:30:43;6.03;;;4.60;;
32826;SDS011;51059;42.058;27.986;2023-12-28T04:33:09;8.43;;;4.47;;
32826;SDS011;51059;42.058;27.986;2023-12-28T04:35:34;6.47;;;4.40;;
32826;SDS011;51059;42.058;27.986;2023-12-28T04:37:59;8.17;;;4.63;;
32826;SDS011;51059;42.058;27.986;2023-12-28T04:40:25;5.70;;;4.13;;
32826;SDS011;51059;42.058;27.986;2023-12-28T04:42:51;7.77;;;4.37;;
32826;SDS011;51059;42.058;27.986;2023-12-28T04:45:16;5.73;;;4.50;;
32826;SDS011;51059;42.058;27.986;2023-12-28T04:47:42;4.97;;;4.47;;
32826;SDS011;51059;42.058;27.986;2023-12-28T04:50:07;6.63;;;4.43;;
32826;SDS011;51059;42.058;27.986;2023-12-28T04:52:33;6.47;;;4.50;;
32826;SDS011;51059;42.058;27.986;2023-12-28T04:54:59;6.03;;;4.60;;
32826;SDS011;51059;42.058;27.986;2023-12-28T04:57:24;6.13;;;4.30;;
32826;SDS011;51059;42.058;27.986;2023-12-28T04:59:51;6.77;;;4.90;;
32826;SDS011;51059;42.058;27.986;2023-12-28T05:02:17;5.07;;;4.00;;
32826;SDS011;51059;42.058;27.986;2023-12-28T05:04:43;4.87;;;4.23;;
32826;SDS011;51059;42.058;27.986;2023-12-28T05:07:10;6.23;;;4.10;;
32826;SDS011;51059;42.058;27.986;2023-12-28T05:09:35;5.00;;;4.50;;
32826;SDS011;51059;42.058;27.986;2023-12-28T05:12:01;5.87;;;4.20;;
32826;SDS011;51059;42.058;27.986;2023-12-28T05:14:27;6.63;;;3.90;;
32826;SDS011;51059;42.058;27.986;2023-12-28T05:16:52;6.93;;;3.83;;
32826;SDS011;51059;42.058;27.986;2023-12-28T05:19:17;4.83;;;3.93;;
32826;SDS011;51059;42.058;27.986;2023-12-28T05:21:45;7.40;;;4.43;;
32826;SDS011;51059;42.058;27.986;2023-12-28T05:24:12;4.73;;;4.10;;
32826;SDS011;51059;42.058;27.986;2023-12-28T05:26:38;4.77;;;3.87;;
32826;SDS011;51059;42.058;27.986;2023-12-28T05:29:03;6.83;;;3.73;;
32826;SDS011;51059;42.058;27.986;2023-12-28T05:31:29;4.13;;;3.63;;
32826;SDS011;51059;42.058;27.986;2023-12-28T05:33:55;4.67;;;3.73;;
32826;SDS011;51059;42.058;27.986;2023-12-28T05:36:20;5.80;;;3.87;;
32826;SDS011;51059;42.058;27.986;2023-12-28T05:38:47;5.77;;;3.87;;
32826;SDS011;51059;42.058;27.986;2023-12-28T05:41:12;4.63;;;3.70;;
32826;SDS011;51059;42.058;27.986;2023-12-28T05:43:38;4.93;;;3.77;;
32826;SDS011;51059;42.058;27.986;2023-12-28T05:46:03;5.03;;;3.73;;
32826;SDS011;51059;42.058;27.986;2023-12-28T05:48:29;4.30;;;3.67;;
32826;SDS011;51059;42.058;27.986;2023-12-28T05:50:59;4.77;;;4.00;;
32826;SDS011;51059;42.058;27.986;2023-12-28T05:53:26;4.10;;;3.70;;
32826;SDS011;51059;42.058;27.986;2023-12-28T05:55:53;4.90;;;3.93;;
32826;SDS011;51059;42.058;27.986;2023-12-28T05:58:18;7.97;;;3.93;;
32826;SDS011;51059;42.058;27.986;2023-12-28T06:00:44;5.33;;;3.83;;
32826;SDS011;51059;42.058;27.986;2023-12-28T06:03:17;6.77;;;3.87;;
32826;SDS011;51059;42.058;27.986;2023-12-28T06:05:43;4.97;;;3.73;;
32826;SDS011;51059;42.058;27.986;2023-12-28T06:08:08;5.13;;;3.90;;
32826;SDS011;51059;42.058;27.986;2023-12-28T06:10:34;5.37;;;3.97;;
32826;SDS011;51059;42.058;27.986;2023-12-28T06:12:59;6.23;;;4.40;;
32826;SDS011;51059;42.058;27.986;2023-12-28T06:15:24;5.37;;;4.13;;
32826;SDS011;51059;42.058;27.986;2023-12-28T06:17:50;4.37;;;3.87;;
32826;SDS011;51059;42.058;27.986;2023-12-28T06:20:15;4.37;;;3.47;;
32826;SDS011;51059;42.058;27.986;2023-12-28T06:22:41;6.00;;;4.17;;
32826;SDS011;51059;42.058;27.986;2023-12-28T06:25:08;5.50;;;3.97;;
32826;SDS011;51059;42.058;27.986;2023-12-28T06:27:33;7.87;;;3.60;;
32826;SDS011;51059;42.058;27.986;2023-12-28T06:29:59;6.20;;;3.93;;
32826;SDS011;51059;42.058;27.986;2023-12-28T06:32:24;3.80;;;3.20;;
32826;SDS011;51059;42.058;27.986;2023-12-28T06:34:51;5.30;;;3.77;;
32826;SDS011;51059;42.058;27.986;2023-12-28T06:37:16;4.37;;;3.43;;
32826;SDS011;51059;42.058;27.986;2023-12-28T06:39:43;6.17;;;3.70;;
32826;SDS011;51059;42.058;27.986;2023-12-28T06:42:08;4.67;;;3.17;;
32826;SDS011;51059;42.058;27.986;2023-12-28T06:44:34;5.83;;;3.60;;
32826;SDS011;51059;42.058;27.986;2023-12-28T06:47:00;6.50;;;3.53;;
32826;SDS011;51059;42.058;27.986;2023-12-28T06:49:25;6.93;;;3.30;;
32826;SDS011;51059;42.058;27.986;2023-12-28T06:51:51;5.93;;;3.20;;
32826;SDS011;51059;42.058;27.986;2023-12-28T06:54:17;6.33;;;3.37;;
32826;SDS011;51059;42.058;27.986;2023-12-28T06:56:43;4.13;;;3.23;;
32826;SDS011;51059;42.058;27.986;2023-12-28T06:59:08;3.87;;;3.20;;
32826;SDS011;51059;42.058;27.986;2023-12-28T07:01:39;4.30;;;3.27;;
32826;SDS011;51059;42.058;27.986;2023-12-28T07:04:04;6.37;;;3.57;;
32826;SDS011;51059;42.058;27.986;2023-12-28T07:06:30;4.63;;;4.00;;
32826;SDS011;51059;42.058;27.986;2023-12-28T07:08:55;6.17;;;3.63;;
32826;SDS011;51059;42.058;27.986;2023-12-28T07:11:21;3.47;;;2.90;;
32826;SDS011;51059;42.058;27.986;2023-12-28T07:13:48;4.10;;;2.90;;
32826;SDS011;51059;42.058;27.986;2023-12-28T07:16:14;4.87;;;3.40;;
32826;SDS011;51059;42.058;27.986;2023-12-28T07:18:42;7.23;;;2.70;;
32826;SDS011;51059;42.058;27.986;2023-12-28T07:21:08;6.07;;;2.97;;
32826;SDS011;51059;42.058;27.986;2023-12-28T07:23:37;4.47;;;3.17;;
32826;SDS011;51059;42.058;27.986;2023-12-28T07:26:03;4.33;;;3.23;;
32826;SDS011;51059;42.058;27.986;2023-12-28T07:28:29;6.00;;;3.40;;
32826;SDS011;51059;42.058;27.986;2023-12-28T07:30:56;5.40;;;2.97;;
32826;SDS011;51059;42.058;27.986;2023-12-28T07:33:22;5.00;;;3.17;;
32826;SDS011;51059;42.058;27.986;2023-12-28T07:35:47;5.57;;;3.60;;
32826;SDS011;51059;42.058;27.986;2023-12-28T07:38:13;5.40;;;3.27;;
32826;SDS011;51059;42.058;27.986;2023-12-28T07:40:39;5.43;;;3.10;;
32826;SDS011;51059;42.058;27.986;2023-12-28T07:43:05;4.47;;;3.20;;
32826;SDS011;51059;42.058;27.986;2023-12-28T07:45:31;4.10;;;2.90;;
32826;SDS011;51059;42.058;27.986;2023-12-28T07:47:59;5.63;;;3.03;;
32826;SDS011;51059;42.058;27.986;2023-12-28T07:50:24;5.63;;;3.50;;
32826;SDS011;51059;42.058;27.986;2023-12-28T07:52:50;4.90;;;3.60;;
32826;SDS011;51059;42.058;27.986;2023-12-28T07:55:15;5.40;;;3.60;;
32826;SDS011;51059;42.058;27.986;2023-12-28T07:57:41;4.77;;;3.40;;
32826;SDS011;51059;42.058;27.986;2023-12-28T08:00:07;4.23;;;2.97;;
32826;SDS011;51059;42.058;27.986;2023-12-28T08:02:33;4.50;;;2.70;;
32826;SDS011;51059;42.058;27.986;2023-12-28T08:04:58;4.73;;;2.97;;
32826;SDS011;51059;42.058;27.986;2023-12-28T08:07:24;4.37;;;2.87;;
32826;SDS011;51059;42.058;27.986;2023-12-28T08:09:50;6.40;;;2.80;;
32826;SDS011;51059;42.058;27.986;2023-12-28T08:12:17;3.60;;;2.77;;
32826;SDS011;51059;42.058;27.986;2023-12-28T08:14:43;3.50;;;2.90;;
32826;SDS011;51059;42.058;27.986;2023-12-28T08:17:09;3.87;;;3.47;;
32826;SDS011;51059;42.058;27.986;2023-12-28T08:19:34;5.27;;;3.00;;
32826;SDS011;51059;42.058;27.986;2023-12-28T08:22:01;4.77;;;2.90;;
32826;SDS011;51059;42.058;27.986;2023-12-28T08:24:27;4.93;;;3.27;;
32826;SDS011;51059;42.058;27.986;2023-12-28T08:26:54;4.30;;;3.03;;
32826;SDS011;51059;42.058;27.986;2023-12-28T08:29:23;4.70;;;3.40;;
32826;SDS011;51059;42.058;27.986;2023-12-28T08:31:49;5.07;;;3.00;;
32826;SDS011;51059;42.058;27.986;2023-12-28T08:34:15;5.20;;;2.93;;
32826;SDS011;51059;42.058;27.986;2023-12-28T08:36:41;4.20;;;2.90;;
32826;SDS011;51059;42.058;27.986;2023-12-28T08:39:07;3.60;;;3.10;;
32826;SDS011;51059;42.058;27.986;2023-12-28T08:41:32;9.30;;;3.03;;
32826;SDS011;51059;42.058;27.986;2023-12-28T08:44:00;4.20;;;3.20;;
32826;SDS011;51059;42.058;27.986;2023-12-28T08:46:25;4.17;;;3.00;;
32826;SDS011;51059;42.058;27.986;2023-12-28T08:48:51;5.67;;;3.60;;
32826;SDS011;51059;42.058;27.986;2023-12-28T08:51:17;6.83;;;3.90;;
32826;SDS011;51059;42.058;27.986;2023-12-28T08:53:42;4.50;;;3.47;;
32826;SDS011;51059;42.058;27.986;2023-12-28T08:56:18;5.13;;;3.90;;
32826;SDS011;51059;42.058;27.986;2023-12-28T08:58:45;4.27;;;3.30;;
32826;SDS011;51059;42.058;27.986;2023-12-28T09:01:16;4.80;;;3.63;;
32826;SDS011;51059;42.058;27.986;2023-12-28T09:03:41;5.20;;;3.70;;
32826;SDS011;51059;42.058;27.986;2023-12-28T09:06:07;4.80;;;3.70;;
32826;SDS011;51059;42.058;27.986;2023-12-28T09:08:33;4.50;;;3.30;;
32826;SDS011;51059;42.058;27.986;2023-12-28T09:11:00;3.67;;;3.20;;
32826;SDS011;51059;42.058;27.986;2023-12-28T09:13:25;5.53;;;3.40;;
32826;SDS011;51059;42.058;27.986;2023-12-28T09:15:52;4.87;;;3.47;;
32826;SDS011;51059;42.058;27.986;2023-12-28T09:18:18;4.37;;;3.27;;
32826;SDS011;51059;42.058;27.986;2023-12-28T09:20:44;4.90;;;3.63;;
32826;SDS011;51059;42.058;27.986;2023-12-28T09:23:09;5.03;;;3.57;;
32826;SDS011;51059;42.058;27.986;2023-12-28T09:25:36;5.87;;;3.80;;
32826;SDS011;51059;42.058;27.986;2023-12-28T09:28:04;4.47;;;3.37;;
32826;SDS011;51059;42.058;27.986;2023-12-28T09:30:30;4.70;;;3.47;;
32826;SDS011;51059;42.058;27.986;2023-12-28T09:32:55;5.00;;;4.00;;
32826;SDS011;51059;42.058;27.986;2023-12-28T09:35:22;5.27;;;3.40;;
32826;SDS011;51059;42.058;27.986;2023-12-28T09:37:47;6.07;;;3.53;;
32826;SDS011;51059;42.058;27.986;2023-12-28T09:40:14;5.23;;;3.73;;
32826;SDS011;51059;42.058;27.986;2023-12-28T09:42:47;5.43;;;3.80;;
32826;SDS011;51059;42.058;27.986;2023-12-28T09:45:15;4.47;;;3.50;;
32826;SDS011;51059;42.058;27.986;2023-12-28T09:47:40;5.57;;;3.70;;
32826;SDS011;51059;42.058;27.986;2023-12-28T09:50:09;6.17;;;3.73;;
32826;SDS011;51059;42.058;27.986;2023-12-28T09:52:36;5.33;;;3.67;;
32826;SDS011;51059;42.058;27.986;2023-12-28T09:55:03;4.50;;;3.70;;
32826;SDS011;51059;42.058;27.986;2023-12-28T09:57:29;5.23;;;3.90;;
32826;SDS011;51059;42.058;27.986;2023-12-28T09:59:55;5.97;;;3.93;;
32826;SDS011;51059;42.058;27.986;2023-12-28T10:02:21;6.20;;;3.83;;
32826;SDS011;51059;42.058;27.986;2023-12-28T10:04:47;7.27;;;3.83;;
32826;SDS011;51059;42.058;27.986;2023-12-28T10:07:12;5.57;;;4.27;;
32826;SDS011;51059;42.058;27.986;2023-12-28T10:09:38;6.40;;;4.10;;
32826;SDS011;51059;42.058;27.986;2023-12-28T10:12:03;5.10;;;3.93;;
32826;SDS011;51059;42.058;27.986;2023-12-28T10:14:30;6.37;;;4.00;;
32826;SDS011;51059;42.058;27.986;2023-12-28T10:16:57;6.50;;;4.10;;
32826;SDS011;51059;42.058;27.986;2023-12-28T10:19:22;6.57;;;4.13;;
32826;SDS011;51059;42.058;27.986;2023-12-28T10:21:49;5.27;;;3.73;;
32826;SDS011;51059;42.058;27.986;2023-12-28T10:24:14;6.67;;;4.30;;
32826;SDS011;51059;42.058;27.986;2023-12-28T10:26:40;5.27;;;4.50;;
32826;SDS011;51059;42.058;27.986;2023-12-28T10:29:07;9.53;;;4.20;;
32826;SDS011;51059;42.058;27.986;2023-12-28T10:31:32;6.07;;;4.17;;
32826;SDS011;51059;42.058;27.986;2023-12-28T10:33:58;5.10;;;4.30;;
32826;SDS011;51059;42.058;27.986;2023-12-28T10:36:30;6.43;;;4.40;;
32826;SDS011;51059;42.058;27.986;2023-12-28T10:38:58;6.53;;;4.47;;
32826;SDS011;51059;42.058;27.986;2023-12-28T10:41:25;6.13;;;4.13;;
32826;SDS011;51059;42.058;27.986;2023-12-28T10:46:22;5.53;;;4.60;;
32826;SDS011;51059;42.058;27.986;2023-12-28T10:48:49;8.17;;;4.53;;
32826;SDS011;51059;42.058;27.986;2023-12-28T10:51:18;5.70;;;3.97;;
32826;SDS011;51059;42.058;27.986;2023-12-28T10:53:56;6.93;;;4.50;;
32826;SDS011;51059;42.058;27.986;2023-12-28T10:56:41;6.30;;;4.30;;
32826;SDS011;51059;42.058;27.986;2023-12-28T11:01:59;6.33;;;4.37;;
32826;SDS011;51059;42.058;27.986;2023-12-28T11:04:46;6.63;;;4.33;;
32826;SDS011;51059;42.058;27.986;2023-12-28T11:07:13;5.67;;;4.27;;
32826;SDS011;51059;42.058;27.986;2023-12-28T11:09:41;5.83;;;4.40;;
32826;SDS011;51059;42.058;27.986;2023-12-28T11:12:07;6.23;;;4.07;;
32826;SDS011;51059;42.058;27.986;2023-12-28T11:14:34;5.70;;;4.43;;
32826;SDS011;51059;42.058;27.986;2023-12-28T11:17:01;5.33;;;4.10;;
32826;SDS011;51059;42.058;27.986;2023-12-28T11:19:30;6.17;;;4.50;;
32826;SDS011;51059;42.058;27.986;2023-12-28T11:21:56;6.53;;;4.80;;
32826;SDS011;51059;42.058;27.986;2023-12-28T11:24:22;5.90;;;4.23;;
32826;SDS011;51059;42.058;27.986;2023-12-28T11:26:55;7.07;;;4.73;;
32826;SDS011;51059;42.058;27.986;2023-12-28T11:29:21;6.70;;;4.83;;
32826;SDS011;51059;42.058;27.986;2023-12-28T11:31:52;7.30;;;4.87;;
32826;SDS011;51059;42.058;27.986;2023-12-28T11:34:18;5.17;;;4.50;;
32826;SDS011;51059;42.058;27.986;2023-12-28T11:36:49;6.00;;;4.60;;
32826;SDS011;51059;42.058;27.986;2023-12-28T11:39:19;6.80;;;4.83;;
32826;SDS011;51059;42.058;27.986;2023-12-28T11:41:46;6.57;;;5.13;;
32826;SDS011;51059;42.058;27.986;2023-12-28T11:44:12;6.40;;;4.90;;
32826;SDS011;51059;42.058;27.986;2023-12-28T11:46:37;6.93;;;5.00;;
32826;SDS011;51059;42.058;27.986;2023-12-28T11:49:05;5.30;;;4.40;;
32826;SDS011;51059;42.058;27.986;2023-12-28T11:51:31;4.70;;;4.20;;
32826;SDS011;51059;42.058;27.986;2023-12-28T11:53:58;6.53;;;4.80;;
32826;SDS011;51059;42.058;27.986;2023-12-28T11:56:24;7.33;;;5.07;;
32826;SDS011;51059;42.058;27.986;2023-12-28T11:58:51;6.03;;;4.67;;
32826;SDS011;51059;42.058;27.986;2023-12-28T12:01:17;9.27;;;5.83;;
32826;SDS011;51059;42.058;27.986;2023-12-28T12:03:43;9.73;;;5.97;;
32826;SDS011;51059;42.058;27.986;2023-12-28T12:06:09;6.70;;;5.13;;
32826;SDS011;51059;42.058;27.986;2023-12-28T12:08:34;9.83;;;5.20;;
32826;SDS011;51059;42.058;27.986;2023-12-28T12:11:04;9.43;;;5.37;;
32826;SDS011;51059;42.058;27.986;2023-12-28T12:13:31;9.33;;;5.70;;
32826;SDS011;51059;42.058;27.986;2023-12-28T12:15:57;7.63;;;5.60;;
32826;SDS011;51059;42.058;27.986;2023-12-28T12:18:23;8.77;;;5.57;;
32826;SDS011;51059;42.058;27.986;2023-12-28T12:20:49;10.83;;;5.33;;
32826;SDS011;51059;42.058;27.986;2023-12-28T12:23:15;6.17;;;5.27;;
32826;SDS011;51059;42.058;27.986;2023-12-28T12:25:41;7.43;;;5.53;;
32826;SDS011;51059;42.058;27.986;2023-12-28T12:28:06;6.83;;;5.67;;
32826;SDS011;51059;42.058;27.986;2023-12-28T12:30:32;6.57;;;5.60;;
32826;SDS011;51059;42.058;27.986;2023-12-28T12:32:58;10.57;;;5.40;;
32826;SDS011;51059;42.058;27.986;2023-12-28T12:35:24;7.77;;;5.27;;
32826;SDS011;51059;42.058;27.986;2023-12-28T12:37:51;7.83;;;5.50;;
32826;SDS011;51059;42.058;27.986;2023-12-28T12:40:17;6.37;;;5.47;;
32826;SDS011;51059;42.058;27.986;2023-12-28T12:42:53;7.47;;;4.80;;
32826;SDS011;51059;42.058;27.986;2023-12-28T12:45:19;5.50;;;5.00;;
32826;SDS011;51059;42.058;27.986;2023-12-28T12:47:47;7.33;;;5.47;;
32826;SDS011;51059;42.058;27.986;2023-12-28T12:50:13;9.33;;;5.70;;
32826;SDS011;51059;42.058;27.986;2023-12-28T12:52:39;8.23;;;5.50;;
32826;SDS011;51059;42.058;27.986;2023-12-28T12:55:04;6.60;;;5.53;;
32826;SDS011;51059;42.058;27.986;2023-12-28T12:57:30;6.37;;;5.20;;
32826;SDS011;51059;42.058;27.986;2023-12-28T12:59:56;8.23;;;5.23;;
32826;SDS011;51059;42.058;27.986;2023-12-28T13:02:24;7.97;;;5.53;;
32826;SDS011;51059;42.058;27.986;2023-12-28T13:04:54;8.00;;;5.30;;
32826;SDS011;51059;42.058;27.986;2023-12-28T13:07:20;9.07;;;4.90;;
32826;SDS011;51059;42.058;27.986;2023-12-28T13:09:46;8.40;;;5.73;;
32826;SDS011;51059;42.058;27.986;2023-12-28T13:12:11;9.33;;;5.30;;
32826;SDS011;51059;42.058;27.986;2023-12-28T13:14:37;6.43;;;5.37;;
32826;SDS011;51059;42.058;27.986;2023-12-28T13:17:03;8.23;;;5.83;;
32826;SDS011;51059;42.058;27.986;2023-12-28T13:19:28;9.43;;;5.30;;
32826;SDS011;51059;42.058;27.986;2023-12-28T13:21:53;7.60;;;5.13;;
32826;SDS011;51059;42.058;27.986;2023-12-28T13:24:20;8.77;;;5.40;;
32826;SDS011;51059;42.058;27.986;2023-12-28T13:26:45;7.53;;;5.40;;
32826;SDS011;51059;42.058;27.986;2023-12-28T13:29:11;7.50;;;4.93;;
32826;SDS011;51059;42.058;27.986;2023-12-28T13:31:37;7.03;;;4.83;;
32826;SDS011;51059;42.058;27.986;2023-12-28T13:34:04;12.33;;;5.77;;
32826;SDS011;51059;42.058;27.986;2023-12-28T13:36:31;8.23;;;4.90;;
32826;SDS011;51059;42.058;27.986;2023-12-28T13:38:56;8.67;;;5.13;;
32826;SDS011;51059;42.058;27.986;2023-12-28T13:41:22;11.77;;;8.20;;
32826;SDS011;51059;42.058;27.986;2023-12-28T13:43:48;7.33;;;5.10;;
32826;SDS011;51059;42.058;27.986;2023-12-28T13:46:14;9.17;;;5.27;;
32826;SDS011;51059;42.058;27.986;2023-12-28T13:48:40;7.47;;;5.23;;
32826;SDS011;51059;42.058;27.986;2023-12-28T13:51:08;8.70;;;5.40;;
32826;SDS011;51059;42.058;27.986;2023-12-28T13:53:33;8.40;;;5.27;;
32826;SDS011;51059;42.058;27.986;2023-12-28T13:56:06;7.87;;;5.60;;
32826;SDS011;51059;42.058;27.986;2023-12-28T13:58:32;9.60;;;5.60;;
32826;SDS011;51059;42.058;27.986;2023-12-28T14:00:57;10.30;;;5.10;;
32826;SDS011;51059;42.058;27.986;2023-12-28T14:03:23;7.10;;;5.30;;
32826;SDS011;51059;42.058;27.986;2023-12-28T14:05:48;6.50;;;5.27;;
32826;SDS011;51059;42.058;27.986;2023-12-28T14:08:15;8.37;;;5.80;;
32826;SDS011;51059;42.058;27.986;2023-12-28T14:10:40;9.03;;;5.77;;
32826;SDS011;51059;42.058;27.986;2023-12-28T14:13:05;8.67;;;5.60;;
32826;SDS011;51059;42.058;27.986;2023-12-28T14:15:37;9.43;;;5.40;;
32826;SDS011;51059;42.058;27.986;2023-12-28T14:18:04;8.70;;;5.47;;
32826;SDS011;51059;42.058;27.986;2023-12-28T14:20:31;7.20;;;5.83;;
32826;SDS011;51059;42.058;27.986;2023-12-28T14:22:57;7.70;;;5.50;;
32826;SDS011;51059;42.058;27.986;2023-12-28T14:25:23;8.13;;;5.70;;
32826;SDS011;51059;42.058;27.986;2023-12-28T14:27:49;7.93;;;5.57;;
32826;SDS011;51059;42.058;27.986;2023-12-28T14:30:15;8.57;;;5.47;;
32826;SDS011;51059;42.058;27.986;2023-12-28T14:32:42;8.93;;;5.83;;
32826;SDS011;51059;42.058;27.986;2023-12-28T14:35:07;8.57;;;5.83;;